マガダン の空港の天気 - METARとTAF

マガダン・ソコル空港 ( UHMM / GDX ) - ロシア マガダン
飛行場実況気象(Metar)
観測時間04/19 22:00 MAGT (04/19 11:00 UTC)
風向・風速北 1m/s
視程10km以上
天気現象
なし
気温-3℃
湿度50%
気圧1006hPa
METARUHMM 191100Z 36001MPS 9999 NSC M03/M12 Q1006 RMK QFE740
過去の天気等 Google飛行場航空写真 Wunderground天気予報

過去48時間のMETAR

飛行場予報(TAF)
発表時間: 4/19 21:59 MAGT (4/19 10:59 UTC)
予報対象時間: 19日23時 MAGT ~ 21日5時 MAGT
風向・風速北 3m/s
視程10km以上
全天の4割程度の積乱雲 雲底高度 910m
20日2時 MAGT ~ 20日8時 MAGT に一時的に
視程3,100m
天気現象もや
全天の4割程度の雲 雲底高度 120m
TAF UHMM 191059Z 1912/2018 01003MPS 9999 SCT030CB
TEMPO 1915/1921 3100 BR SCT004